Time;durP1;ratioP1;P1;durP2;ratioP2;P2;SDS_P1;SDS_P2;PMS_P1;PMS_P2;Temp;Humidity;BMP_temperature;BMP_pressure;BME280_temperature;BME280_humidity;BME280_pressure;Samples;Min_cycle;Max_cycle;Signal;HPM_P1;HPM_P2
2024/04/11 00:01:39;;;;;;;8.18;2.38;;;;;;;11.52;49.82;99992.25;5415808;26;20522;-49
2024/04/11 00:04:05;;;;;;;12.80;3.22;;;;;;;11.55;49.75;99986.66;5415781;26;20011;-48
2024/04/11 00:06:31;;;;;;;12.23;2.55;;;;;;;11.59;49.83;99979.25;5417484;26;19999;-49
2024/04/11 00:08:57;;;;;;;10.38;5.13;;;;;;;11.55;49.64;99983.19;5417292;26;20012;-49
2024/04/11 00:11:22;;;;;;;14.60;8.80;;;;;;;11.58;50.16;99982.84;5417399;26;20428;-48
2024/04/11 00:13:48;;;;;;;25.08;19.75;;;;;;;11.72;50.32;99970.75;5415825;26;20004;-49
2024/04/11 00:16:14;;;;;;;16.30;10.38;;;;;;;11.83;50.01;99985.28;5417247;26;19999;-49
2024/04/11 00:18:40;;;;;;;6.15;3.53;;;;;;;11.92;50.00;99987.72;5415504;26;20481;-49
2024/04/11 00:21:06;;;;;;;14.43;7.75;;;;;;;12.06;49.62;99980.88;5417178;26;20438;-49
2024/04/11 00:23:32;;;;;;;18.63;11.55;;;;;;;12.03;49.85;99985.66;5415440;26;20007;-49
2024/04/11 00:25:59;;;;;;;13.80;4.47;;;;;;;12.10;49.84;99982.16;5415360;26;19999;-48
2024/04/11 00:28:26;;;;;;;11.10;3.13;;;;;;;12.14;49.34;99982.63;5416676;26;20536;-49
2024/04/11 00:30:55;;;;;;;12.93;2.90;;;;;;;12.00;48.92;99978.94;5415289;26;20355;-49
2024/04/11 00:33:21;;;;;;;11.55;4.72;;;;;;;11.94;49.18;99979.66;5415375;26;20331;-49
2024/04/11 00:35:49;;;;;;;8.45;2.10;;;;;;;11.91;49.09;99969.47;5417134;26;20000;-49
2024/04/11 00:38:22;;;;;;;8.20;2.50;;;;;;;11.74;49.55;99974.03;5416978;26;20000;-49
2024/04/11 00:40:57;;;;;;;9.35;2.22;;;;;;;11.53;50.19;99972.88;5417050;26;20003;-49
2024/04/11 00:43:23;;;;;;;;;;;;;;;11.29;49.99;99971.19;5417534;26;20329;-49
2024/04/11 00:45:48;;;;;;;;;;;;;;;10.96;50.14;99973.97;5415892;26;19925;-49
2024/04/11 00:48:18;;;;;;;7.53;2.25;;;;;;;10.76;51.01;99965.69;5416749;26;19925;-49
2024/04/11 00:50:46;;;;;;;5.28;1.80;;;;;;;10.68;51.81;99962.28;5414991;26;20011;-49
2024/04/11 00:53:12;;;;;;;8.95;2.72;;;;;;;10.65;51.96;99963.44;5414917;26;20433;-49
2024/04/11 00:55:41;;;;;;;7.07;2.08;;;;;;;10.79;52.24;99959.28;5416720;26;19999;-49
2024/04/11 00:58:11;;;;;;;8.88;2.20;;;;;;;10.94;52.44;99962.81;5415113;26;20064;-49
2024/04/11 01:00:38;;;;;;;10.30;2.10;;;;;;;10.90;52.38;99955.47;5414914;26;20000;-49
2024/04/11 01:03:04;;;;;;;4.57;2.13;;;;;;;10.78;52.35;99962.88;5415148;26;20031;-49
2024/04/11 01:05:32;;;;;;;7.57;1.98;;;;;;;10.79;52.83;99954.03;5414793;26;20018;-49
2024/04/11 01:07:58;;;;;;;6.03;1.42;;;;;;;10.98;53.34;99958.84;5414600;26;20462;-49
2024/04/11 01:10:25;;;;;;;8.85;2.60;;;;;;;11.18;52.68;99961.88;5416548;26;20446;-49
2024/04/11 01:12:51;;;;;;;13.05;2.53;;;;;;;11.38;52.45;99974.59;5414841;26;20461;-50
2024/04/11 01:15:18;;;;;;;7.20;2.60;;;;;;;11.54;52.07;99968.41;5414513;26;20014;-49
2024/04/11 01:17:47;;;;;;;4.45;1.70;;;;;;;11.72;51.83;99971.56;5416492;26;20005;-49
2024/04/11 01:20:14;;;;;;;4.60;2.13;;;;;;;11.75;51.56;99968.59;5416368;26;20014;-49
2024/04/11 01:22:43;;;;;;;7.43;2.05;;;;;;;11.67;51.07;99965.19;5416395;26;20007;-49
2024/04/11 01:25:09;;;;;;;6.25;2.40;;;;;;;11.59;51.14;99961.66;5415647;26;20097;-49
2024/04/11 01:27:35;;;;;;;7.30;2.25;;;;;;;11.50;51.43;99970.56;5416161;26;20408;-50
2024/04/11 01:30:05;;;;;;;8.10;2.03;;;;;;;11.40;51.34;99965.53;5415819;26;20000;-49
2024/04/11 01:32:31;;;;;;;7.20;2.00;;;;;;;11.32;51.47;99977.91;5416169;26;20000;-49
2024/04/11 01:34:59;;;;;;;5.13;2.15;;;;;;;11.17;52.01;99986.53;5416094;26;20461;-49
2024/04/11 01:37:28;;;;;;;5.47;2.03;;;;;;;11.14;52.58;99980.78;5414305;26;20004;-49
2024/04/11 01:39:55;;;;;;;6.22;2.70;;;;;;;11.09;52.79;99972.63;5414321;26;20411;-49
2024/04/11 01:42:21;;;;;;;6.75;1.90;;;;;;;11.07;52.77;99985.13;5415874;26;20457;-49
2024/04/11 01:44:47;;;;;;;4.88;1.92;;;;;;;11.13;52.58;99985.25;5415985;26;20000;-49
2024/04/11 01:47:15;;;;;;;8.52;1.92;;;;;;;11.16;52.84;99981.44;5415915;26;20010;-49
2024/04/11 01:49:42;;;;;;;9.27;2.15;;;;;;;11.21;53.02;99989.63;5415913;26;20014;-49
2024/04/11 01:52:13;;;;;;;7.47;3.08;;;;;;;11.26;52.98;99981.22;5415678;26;20007;-49
2024/04/11 01:54:40;;;;;;;10.07;3.40;;;;;;;11.36;52.91;99989.72;5415712;26;20004;-49
2024/04/11 01:57:06;;;;;;;8.48;2.15;;;;;;;11.34;52.85;99989.88;5413845;26;20020;-50
2024/04/11 01:59:35;;;;;;;7.07;1.95;;;;;;;11.33;53.06;99992.72;5413925;26;20011;-49
2024/04/11 02:02:08;;;;;;;5.75;2.00;;;;;;;11.24;53.10;99991.91;5413862;26;20073;-49
2024/04/11 02:04:34;;;;;;;9.57;3.72;;;;;;;11.22;53.20;99987.81;5415527;26;19999;-49
2024/04/11 02:07:00;;;;;;;7.10;1.95;;;;;;;11.22;53.92;99999.16;5415478;26;20571;-49
2024/04/11 02:09:28;;;;;;;4.43;2.10;;;;;;;11.21;53.45;100000.16;5415441;26;20080;-49
2024/04/11 02:11:57;;;;;;;8.20;2.28;;;;;;;11.28;53.33;99995.03;5415403;26;20099;-50
2024/04/11 02:14:23;;;;;;;5.90;2.10;;;;;;;11.33;53.21;99990.06;5413623;26;20007;-49
2024/04/11 02:16:50;;;;;;;5.40;2.30;;;;;;;11.23;53.11;99995.53;5415357;26;20000;-49
2024/04/11 02:19:16;;;;;;;4.97;2.13;;;;;;;11.14;53.18;99994.75;5384342;26;20003;-49
2024/04/11 02:21:42;;;;;;;8.95;2.95;;;;;;;11.14;53.44;99996.56;5413579;26;20011;-49
2024/04/11 02:24:11;;;;;;;8.50;2.78;;;;;;;11.07;53.32;99990.38;5415228;26;20015;-49
2024/04/11 02:26:37;;;;;;;6.18;2.30;;;;;;;11.09;53.43;100004.97;5415209;26;20454;-50
2024/04/11 02:29:06;;;;;;;10.45;3.70;;;;;;;11.05;53.27;100000.22;5414764;26;20007;-49
2024/04/11 02:31:33;;;;;;;9.23;2.33;;;;;;;10.91;53.54;99997.31;5413365;26;20330;-49
2024/04/11 02:34:00;;;;;;;11.15;2.28;;;;;;;10.86;54.26;100004.06;5415034;26;20000;-50
2024/04/11 02:36:29;;;;;;;7.68;2.00;;;;;;;10.81;54.68;99999.31;5416565;26;20017;-49
2024/04/11 02:38:59;;;;;;;8.05;2.40;;;;;;;10.67;54.70;100010.53;5418708;26;20332;-49
2024/04/11 02:41:27;;;;;;;9.10;4.65;;;;;;;10.55;55.18;100016.13;5418840;26;20018;-49
2024/04/11 02:43:57;;;;;;;7.10;2.53;;;;;;;10.62;55.21;100012.81;5416903;26;20021;-49
2024/04/11 02:46:25;;;;;;;8.27;2.42;;;;;;;10.63;54.72;100023.16;5418626;26;20003;-49
2024/04/11 02:48:53;;;;;;;7.85;3.20;;;;;;;10.62;55.04;100036.47;5418418;26;20003;-49
2024/04/11 02:51:19;;;;;;;5.22;1.98;;;;;;;10.64;54.82;100019.53;5418486;26;20485;-50
2024/04/11 02:53:45;;;;;;;4.75;1.90;;;;;;;10.73;54.96;100015.91;5418664;26;20004;-49
2024/04/11 02:56:11;;;;;;;5.90;2.20;;;;;;;10.74;54.78;100030.66;5418630;26;20075;-49
2024/04/11 02:58:37;;;;;;;10.13;2.17;;;;;;;10.78;54.83;100031.16;5418410;26;20528;-50
2024/04/11 03:01:08;;;;;;;8.73;2.10;;;;;;;10.84;54.56;100024.41;5418465;26;20015;-50
2024/04/11 03:03:34;;;;;;;11.85;3.20;;;;;;;10.81;54.71;100024.78;5418693;26;20081;-49
2024/04/11 03:06:17;;;;;;;13.20;2.35;;;;;;;10.79;54.56;100020.50;5416387;26;19999;-49
2024/04/11 03:08:44;;;;;;;11.85;2.20;;;;;;;10.74;54.55;100035.13;5418196;26;19999;-49
2024/04/11 03:11:11;;;;;;;7.20;1.60;;;;;;;10.78;54.62;100025.91;5387188;26;20000;-49
2024/04/11 03:13:38;;;;;;;6.50;2.10;;;;;;;10.82;54.48;100029.84;5418284;26;19999;-49
2024/04/11 03:16:04;;;;;;;9.05;2.20;;;;;;;10.83;54.13;100034.13;5418118;26;20004;-49
2024/04/11 03:18:31;;;;;;;12.60;2.72;;;;;;;10.82;54.08;100040.34;5416510;26;20315;-49
2024/04/11 03:20:58;;;;;;;8.18;2.33;;;;;;;10.75;54.60;100040.19;5418170;26;20017;-50
2024/04/11 03:23:26;;;;;;;7.55;2.08;;;;;;;10.69;55.06;100046.13;5418125;26;19999;-49
2024/04/11 03:25:52;;;;;;;6.15;2.60;;;;;;;10.63;55.04;100048.63;5418541;26;20457;-49
2024/04/11 03:28:22;;;;;;;5.68;2.92;;;;;;;10.59;55.18;100048.13;5417987;26;20000;-50
2024/04/11 03:31:00;;;;;;;10.98;2.67;;;;;;;10.63;55.50;100064.38;5416639;26;20003;-49
2024/04/11 03:33:26;;;;;;;6.43;2.22;;;;;;;10.66;54.99;100058.75;5418557;26;20476;-49
2024/04/11 03:35:53;;;;;;;5.50;1.95;;;;;;;10.60;55.25;100065.50;5416388;26;19999;-49
2024/04/11 03:38:19;;;;;;;10.50;2.65;;;;;;;10.63;55.45;100057.31;5416157;26;20010;-49
2024/04/11 03:41:02;;;;;;;4.35;2.55;;;;;;;10.70;55.36;100065.31;5417992;26;20004;-49
2024/04/11 03:43:29;;;;;;;10.25;2.45;;;;;;;10.70;55.09;100070.56;5417852;26;19999;-49
2024/04/11 03:46:18;;;;;;;9.65;2.28;;;;;;;10.61;55.00;100072.41;5415919;26;20368;-49
2024/04/11 03:48:45;;;;;;;11.80;3.33;;;;;;;10.58;54.99;100076.19;5417572;26;20518;-49
2024/04/11 03:51:15;;;;;;;4.40;1.85;;;;;;;10.59;55.25;100074.38;5417730;26;20041;-49
2024/04/11 03:53:41;;;;;;;7.32;2.35;;;;;;;10.57;55.42;100076.34;5415768;26;20010;-49
2024/04/11 03:56:08;;;;;;;10.45;2.60;;;;;;;10.55;55.32;100073.06;5415882;26;20031;-50
2024/04/11 03:58:37;;;;;;;7.35;2.40;;;;;;;10.50;55.64;100077.97;5415794;26;20330;-49
2024/04/11 04:01:12;;;;;;;11.40;3.63;;;;;;;10.46;55.33;100077.47;5417810;26;20004;-49
2024/04/11 04:03:42;;;;;;;6.13;2.15;;;;;;;10.41;56.11;100078.97;5417554;26;20011;-49
2024/04/11 04:06:08;;;;;;;7.93;2.22;;;;;;;10.39;55.89;100079.94;5417742;26;20026;-49
2024/04/11 04:08:35;;;;;;;7.72;2.42;;;;;;;10.32;56.30;100075.53;5415619;26;20014;-49
2024/04/11 04:11:01;;;;;;;5.45;2.10;;;;;;;10.24;56.86;100086.81;5415537;26;20342;-49
2024/04/11 04:13:27;;;;;;;8.05;2.53;;;;;;;10.22;56.65;100090.56;5417377;26;20075;-50
2024/04/11 04:15:56;;;;;;;4.05;2.42;;;;;;;10.28;57.13;100087.28;5417392;26;20377;-49
2024/04/11 04:18:22;;;;;;;8.30;2.50;;;;;;;10.30;56.48;100101.09;5417581;26;20018;-49
2024/04/11 04:20:54;;;;;;;9.90;2.42;;;;;;;10.26;56.55;100108.47;5417393;26;20004;-49
2024/04/11 04:23:19;;;;;;;6.05;2.60;;;;;;;10.32;56.81;100107.84;5417302;26;20011;-49
2024/04/11 04:25:48;;;;;;;4.47;1.73;;;;;;;10.46;56.84;100101.09;5417200;26;20353;-49
2024/04/11 04:28:18;;;;;;;8.23;2.22;;;;;;;10.49;56.38;100100.78;5416865;26;19999;-49
2024/04/11 04:30:44;;;;;;;7.45;2.70;;;;;;;10.47;56.63;100109.81;5417081;26;20003;-49
2024/04/11 04:33:11;;;;;;;16.58;5.53;;;;;;;10.49;56.60;100113.91;5415527;26;20456;-49
2024/04/11 04:35:37;;;;;;;6.90;2.25;;;;;;;10.48;56.44;100104.38;5416984;26;20031;-49
2024/04/11 04:38:02;;;;;;;7.05;2.55;;;;;;;10.43;56.43;100109.31;5416993;26;20003;-49
2024/04/11 04:40:28;;;;;;;14.88;3.33;;;;;;;10.41;56.85;100120.97;5417078;26;20003;-49
2024/04/11 04:42:56;;;;;;;10.00;2.90;;;;;;;10.42;57.39;100122.59;5415140;26;20342;-49
2024/04/11 04:45:21;;;;;;;10.70;3.38;;;;;;;10.43;57.33;100119.00;5416849;26;20007;-49
2024/04/11 04:47:47;;;;;;;12.52;2.95;;;;;;;10.39;57.09;100124.56;5385444;26;20003;-49
2024/04/11 04:50:13;;;;;;;7.03;2.25;;;;;;;10.37;57.10;100121.28;5415058;26;20003;-49
2024/04/11 04:52:43;;;;;;;6.05;3.05;;;;;;;10.36;57.04;100121.44;5415082;26;20032;-49
2024/04/11 04:55:10;;;;;;;10.50;3.28;;;;;;;10.41;56.74;100119.16;5416688;26;20003;-49
2024/04/11 04:57:36;;;;;;;7.60;3.00;;;;;;;10.44;56.39;100121.44;5416767;26;20000;-49
2024/04/11 05:00:03;;;;;;;8.90;2.50;;;;;;;10.42;56.40;100123.41;5414007;26;20003;-49
2024/04/11 05:02:32;;;;;;;8.18;2.70;;;;;;;10.47;56.28;100125.56;5414976;26;20481;-49
2024/04/11 05:04:57;;;;;;;7.30;2.25;;;;;;;10.47;56.34;100115.88;5416696;26;20338;-49
2024/04/11 05:07:24;;;;;;;13.43;3.17;;;;;;;10.49;56.18;100126.22;5416485;26;20000;-49
2024/04/11 05:09:50;;;;;;;15.20;2.97;;;;;;;10.49;55.98;100128.84;5416453;26;20458;-49
2024/04/11 05:12:15;;;;;;;7.88;2.50;;;;;;;10.53;55.88;100130.16;5416653;26;20003;-49
2024/04/11 05:14:45;;;;;;;10.43;2.75;;;;;;;10.48;56.31;100124.56;5385218;26;20086;-49
2024/04/11 05:17:13;;;;;;;8.73;2.20;;;;;;;10.49;56.48;100129.66;5416442;26;20488;-49
2024/04/11 05:19:39;;;;;;;9.57;2.17;;;;;;;10.63;56.22;100132.63;5416293;26;20010;-49
2024/04/11 05:22:08;;;;;;;21.63;3.30;;;;;;;11.11;55.78;100138.78;5416502;26;20473;-49
2024/04/11 05:24:35;;;;;;;12.60;2.60;;;;;;;11.85;54.43;100138.50;5416387;26;19999;-49
2024/04/11 05:27:01;;;;;;;9.00;2.85;;;;;;;12.48;52.37;100131.38;5416473;26;20454;-49
2024/04/11 05:29:27;;;;;;;10.27;2.22;;;;;;;13.05;50.76;100136.13;5414028;26;20000;-49
2024/04/11 05:31:56;;;;;;;7.35;2.13;;;;;;;13.56;50.17;100135.41;5416372;26;20323;-49
2024/04/11 05:34:25;;;;;;;5.70;2.10;;;;;;;14.24;48.42;100141.25;5416111;26;20035;-49
2024/04/11 05:36:51;;;;;;;9.95;3.00;;;;;;;14.67;47.55;100145.72;5414178;26;20014;-49
2024/04/11 05:39:20;;;;;;;16.20;2.80;;;;;;;15.12;46.42;100155.00;5384742;26;20367;-49
2024/04/11 05:41:46;;;;;;;15.25;3.03;;;;;;;15.58;45.06;100154.44;5415889;26;20000;-49
2024/04/11 05:44:13;;;;;;;17.65;3.05;;;;;;;16.01;43.82;100149.94;5416070;26;20003;-49
2024/04/11 05:46:41;;;;;;;13.32;3.20;;;;;;;16.46;42.22;100152.88;5416167;26;20015;-47
2024/04/11 05:49:07;;;;;;;13.98;2.78;;;;;;;16.74;41.09;100153.53;5416033;26;20003;-47
2024/04/11 05:51:35;;;;;;;11.95;2.35;;;;;;;16.92;40.37;100168.84;5415719;26;20014;-47
2024/04/11 05:54:02;;;;;;;20.15;5.03;;;;;;;17.21;39.48;100153.50;5415841;26;20081;-47
2024/04/11 05:56:27;;;;;;;9.00;2.85;;;;;;;17.46;39.13;100163.41;5415730;26;20000;-47
2024/04/11 05:58:53;;;;;;;9.18;2.72;;;;;;;17.63;39.67;100156.63;5415671;26;20018;-47
2024/04/11 06:01:20;;;;;;;21.33;3.40;;;;;;;17.68;38.99;100159.47;5415712;26;20355;-47
2024/04/11 06:03:46;;;;;;;15.82;3.58;;;;;;;17.75;39.18;100162.91;5415538;26;20469;-47
2024/04/11 06:06:14;;;;;;;14.80;3.10;;;;;;;17.74;38.51;100163.91;5384299;26;20003;-47
2024/04/11 06:08:41;;;;;;;25.67;3.42;;;;;;;17.92;38.17;100171.22;5415733;26;20072;-47
2024/04/11 06:11:07;;;;;;;15.85;2.78;;;;;;;18.16;37.54;100163.56;5418023;26;20133;-47
2024/04/11 06:13:33;;;;;;;23.33;4.63;;;;;;;18.39;37.57;100168.31;5418999;26;20011;-47
2024/04/11 06:16:00;;;;;;;23.92;3.88;;;;;;;18.63;36.69;100166.69;5418984;26;20043;-47
2024/04/11 06:18:28;;;;;;;14.32;3.03;;;;;;;18.82;36.04;100164.16;5419020;26;20330;-47
2024/04/11 06:21:00;;;;;;;23.05;3.53;;;;;;;19.06;35.42;100173.13;5417281;26;20039;-47
2024/04/11 06:23:26;;;;;;;19.13;2.83;;;;;;;19.26;34.96;100176.41;5419120;26;20003;-47
2024/04/11 06:25:54;;;;;;;35.25;22.67;;;;;;;19.51;35.21;100163.00;5417016;26;20081;-47
2024/04/11 06:28:20;;;;;;;25.77;17.83;;;;;;;19.97;34.25;100170.69;5416628;26;20003;-47
2024/04/11 06:30:51;;;;;;;23.40;3.75;;;;;;;20.53;33.25;100172.16;5418852;26;20014;-47
2024/04/11 06:33:18;;;;;;;13.10;3.05;;;;;;;20.87;33.15;100177.78;5419067;26;20003;-47
2024/04/11 06:35:48;;;;;;;23.15;3.03;;;;;;;21.04;32.54;100181.38;5417112;26;20442;-47
2024/04/11 06:38:17;;;;;;;8.00;2.72;;;;;;;21.07;32.38;100180.13;5416969;26;20326;-47
2024/04/11 06:40:47;;;;;;;11.65;2.20;;;;;;;21.09;31.66;100186.03;5418604;26;20010;-47
2024/04/11 06:43:16;;;;;;;9.18;3.92;;;;;;;21.35;31.06;100182.06;5418810;26;20003;-47
2024/04/11 06:45:45;;;;;;;13.23;3.05;;;;;;;21.20;31.51;100195.06;5418573;26;20039;-47
2024/04/11 06:48:12;;;;;;;14.00;3.17;;;;;;;21.24;31.50;100189.03;5418869;26;19999;-47
2024/04/11 06:50:38;;;;;;;25.20;3.55;;;;;;;21.34;31.04;100194.59;5418450;26;20019;-47
2024/04/11 06:53:05;;;;;;;17.23;3.17;;;;;;;20.76;31.00;100203.41;5418529;26;20011;-47
2024/04/11 06:55:32;;;;;;;9.25;2.75;;;;;;;20.44;31.84;100200.19;5416796;26;20116;-47
2024/04/11 06:57:58;;;;;;;11.75;2.58;;;;;;;20.71;31.95;100198.75;5418336;26;20003;-47
2024/04/11 07:00:35;;;;;;;10.07;3.03;;;;;;;21.39;31.33;100198.41;5418454;26;20003;-47
2024/04/11 07:03:26;;;;;;;7.07;2.30;;;;;;;22.19;29.52;100197.63;5418665;26;20105;-47
2024/04/11 07:05:52;;;;;;;9.55;2.80;;;;;;;22.95;28.27;100194.63;5417493;26;20014;-47
2024/04/11 07:08:29;;;;;;;9.43;2.30;;;;;;;23.29;27.42;100186.59;5418278;26;20006;-47
2024/04/11 07:11:23;;;;;;;8.50;2.80;;;;;;;23.36;28.02;100189.06;5416607;26;20004;-47
2024/04/11 07:13:50;;;;;;;11.68;3.55;;;;;;;23.81;28.06;100191.53;5416401;26;20018;-47
2024/04/11 07:16:17;;;;;;;9.90;3.53;;;;;;;24.25;27.07;100196.03;5386997;26;20003;-48
2024/04/11 07:18:48;;;;;;;8.20;2.60;;;;;;;24.45;27.11;100195.41;5418247;26;20003;-47
2024/04/11 07:21:17;;;;;;;9.02;2.60;;;;;;;25.00;26.61;100193.44;5417739;26;19999;-47
2024/04/11 07:23:54;;;;;;;9.68;3.25;;;;;;;24.93;25.76;100190.97;5416174;26;20454;-47
2024/04/11 07:26:29;;;;;;;9.75;3.75;;;;;;;25.10;25.50;100196.19;5418036;26;19999;-47
2024/04/11 07:28:56;;;;;;;7.55;2.97;;;;;;;25.73;24.53;100198.13;5417632;26;20003;-47
2024/04/11 07:31:22;;;;;;;17.75;3.40;;;;;;;26.09;24.08;100196.38;5417929;26;20359;-47
2024/04/11 07:33:48;;;;;;;7.68;2.38;;;;;;;26.46;23.40;100189.94;5418039;26;20010;-47
2024/04/11 07:36:21;;;;;;;8.93;3.08;;;;;;;26.85;23.48;100195.63;5416015;26;20003;-47
2024/04/11 07:38:47;;;;;;;5.53;2.30;;;;;;;27.06;22.74;100200.97;5416074;26;20341;-47
2024/04/11 07:41:16;;;;;;;10.13;2.17;;;;;;;26.79;22.35;100198.59;5417683;26;20004;-47
2024/04/11 07:43:53;;;;;;;8.55;2.78;;;;;;;25.76;24.17;100189.53;5416046;26;20331;-47
2024/04/11 07:46:22;;;;;;;6.15;2.30;;;;;;;25.94;23.85;100183.72;5417855;26;20015;-47
2024/04/11 07:48:48;;;;;;;11.70;2.80;;;;;;;26.44;23.69;100186.72;5417592;26;19999;-47
2024/04/11 07:51:15;;;;;;;12.63;2.83;;;;;;;27.00;22.67;100183.22;5417652;26;20352;-47
2024/04/11 07:53:43;;;;;;;8.68;3.42;;;;;;;27.02;22.54;100197.22;5415877;26;20010;-47
2024/04/11 07:56:09;;;;;;;9.75;4.00;;;;;;;27.16;22.77;100186.66;5417808;26;20007;-47
2024/04/11 07:58:38;;;;;;;11.40;2.38;;;;;;;27.53;22.75;100191.72;5417671;26;20007;-47
2024/04/11 08:01:04;;;;;;;14.27;2.97;;;;;;;27.56;22.37;100199.22;5417596;26;19995;-47
2024/04/11 08:03:30;;;;;;;17.15;3.83;;;;;;;27.44;22.56;100196.84;5417578;26;20011;-47
2024/04/11 08:05:56;;;;;;;10.88;3.13;;;;;;;27.60;22.73;100199.50;5415650;26;20453;-47
2024/04/11 08:08:22;;;;;;;11.82;3.38;;;;;;;27.75;22.22;100202.13;5417614;26;20152;-48
2024/04/11 08:10:48;;;;;;;16.30;3.15;;;;;;;27.11;22.46;100209.06;5417669;26;20416;-47
2024/04/11 08:13:15;;;;;;;10.25;3.05;;;;;;;26.95;22.72;100204.78;5415568;26;20015;-47
2024/04/11 08:15:46;;;;;;;7.80;2.33;;;;;;;26.92;23.23;100208.00;5417259;26;20010;-47
2024/04/11 08:18:12;;;;;;;9.52;2.92;;;;;;;27.19;23.02;100211.19;5417469;26;20466;-47
2024/04/11 08:20:38;;;;;;;5.78;2.70;;;;;;;27.89;22.51;100215.84;5417506;26;20075;-47
2024/04/11 08:23:04;;;;;;;8.45;2.67;;;;;;;27.97;22.06;100217.97;5417378;26;19999;-48
2024/04/11 08:25:30;;;;;;;15.50;3.22;;;;;;;28.22;22.15;100219.69;5415705;26;19995;-48
2024/04/11 08:27:57;;;;;;;8.52;2.83;;;;;;;28.73;21.96;100213.13;5415476;26;20846;-48
2024/04/11 08:30:23;;;;;;;12.88;4.82;;;;;;;29.25;20.61;100216.16;5415326;26;20076;-48
2024/04/11 08:32:48;;;;;;;9.70;3.92;;;;;;;29.60;20.63;100220.34;5414803;26;20015;-46
2024/04/11 08:35:17;;;;;;;6.38;2.60;;;;;;;30.14;20.05;100228.31;5384918;26;20035;-46
2024/04/11 08:37:45;;;;;;;7.63;2.78;;;;;;;30.14;19.79;100218.28;5415258;26;20442;-45
2024/04/11 08:40:11;;;;;;;9.38;2.95;;;;;;;29.74;20.09;100225.91;5415244;26;20012;-46
2024/04/11 08:42:38;;;;;;;12.25;2.63;;;;;;;28.92;21.00;100220.53;5415216;26;20049;-46
2024/04/11 08:45:08;;;;;;;6.80;2.42;;;;;;;28.53;21.08;100226.78;5417148;26;20450;-45
2024/04/11 08:47:34;;;;;;;8.90;2.50;;;;;;;27.69;22.09;100230.22;5416896;26;20004;-46
2024/04/11 08:50:00;;;;;;;13.32;2.85;;;;;;;27.65;21.80;100229.97;5415177;26;20000;-45
2024/04/11 08:52:35;;;;;;;7.03;2.08;;;;;;;26.85;22.22;100241.44;5415291;26;20004;-45
2024/04/11 08:55:01;;;;;;;8.57;2.65;;;;;;;26.54;23.32;100245.16;5414213;26;19996;-45
2024/04/11 08:57:27;;;;;;;7.90;2.42;;;;;;;26.59;23.49;100247.88;5414946;26;19999;-45
2024/04/11 08:59:55;;;;;;;8.02;3.30;;;;;;;26.89;23.42;100242.50;5414977;26;19999;-45
2024/04/11 09:02:21;;;;;;;11.85;2.80;;;;;;;27.36;23.04;100245.16;5416591;26;20007;-46
2024/04/11 09:04:47;;;;;;;7.97;3.30;;;;;;;27.77;23.20;100247.69;5415107;26;20034;-48
2024/04/11 09:07:21;;;;;;;10.23;4.18;;;;;;;28.44;22.87;100240.06;5415019;26;19995;-48
2024/04/11 09:09:50;;;;;;;12.90;4.38;;;;;;;29.08;21.65;100246.31;5416650;26;20004;-47
2024/04/11 09:12:22;;;;;;;37.92;14.65;;;;;;;29.28;21.71;100254.25;5416412;26;20011;-48
2024/04/11 09:14:48;;;;;;;24.98;7.65;;;;;;;29.59;21.24;100258.53;5416504;26;20086;-48
2024/04/11 09:17:15;;;;;;;17.90;9.40;;;;;;;29.77;20.76;100259.69;5416357;26;20014;-48
2024/04/11 09:19:42;;;;;;;12.60;5.10;;;;;;;30.21;19.77;100251.22;5416421;26;19999;-47
2024/04/11 09:22:12;;;;;;;11.75;2.55;;;;;;;30.23;20.15;100256.38;5414982;26;20072;-48
2024/04/11 09:24:41;;;;;;;7.65;2.78;;;;;;;30.55;19.76;100260.25;5416446;26;20003;-48
2024/04/11 09:27:08;;;;;;;14.25;5.43;;;;;;;30.94;19.31;100251.75;5416235;26;20457;-48
2024/04/11 09:29:35;;;;;;;23.70;3.20;;;;;;;31.57;18.99;100235.94;5414197;26;20468;-48
2024/04/11 09:32:03;;;;;;;8.25;2.58;;;;;;;31.83;19.06;100236.22;5416135;26;20007;-48
2024/04/11 09:34:32;;;;;;;6.47;2.10;;;;;;;31.94;18.25;100229.47;5416049;26;20016;-47
2024/04/11 09:36:59;;;;;;;43.13;5.15;;;;;;;32.09;18.30;100225.63;5416092;26;20593;-48
2024/04/11 09:39:48;;;;;;;14.30;2.10;;;;;;;32.24;18.06;100216.34;5416064;26;20013;-46
2024/04/11 09:42:18;;;;;;;7.93;2.28;;;;;;;32.24;18.24;100224.47;5414725;26;20003;-46
2024/04/11 09:44:50;;;;;;;7.70;1.85;;;;;;;32.50;17.96;100219.22;5416827;26;20489;-45
2024/04/11 09:47:26;;;;;;;6.78;2.00;;;;;;;32.71;17.52;100216.03;5417575;26;20011;-46
2024/04/11 09:49:55;;;;;;;9.52;2.17;;;;;;;33.28;17.03;100218.06;5419455;26;19999;-46
2024/04/11 09:52:27;;;;;;;15.65;3.00;;;;;;;33.72;16.97;100214.34;5419279;26;20542;-46
2024/04/11 09:55:03;;;;;;;7.82;2.78;;;;;;;33.78;16.51;100217.72;5419310;26;20026;-45
2024/04/11 09:57:33;;;;;;;12.82;4.90;;;;;;;33.65;16.85;100219.50;5419643;26;20000;-45
2024/04/11 10:00:10;;;;;;;7.90;3.33;;;;;;;33.39;17.15;100227.56;5419384;26;20000;-46
2024/04/11 10:02:38;;;;;;;10.15;3.15;;;;;;;33.58;16.83;100228.06;5419314;26;20395;-46
2024/04/11 10:05:05;;;;;;;16.50;3.50;;;;;;;33.59;16.58;100228.91;5419173;26;20003;-46
2024/04/11 10:07:33;;;;;;;8.50;1.92;;;;;;;33.46;16.11;100227.88;5419121;26;20080;-46
2024/04/11 10:10:06;;;;;;;4.22;2.10;;;;;;;33.08;16.39;100228.34;5419293;26;20015;-46
2024/04/11 10:12:41;;;;;;;8.63;2.35;;;;;;;32.61;17.19;100223.31;5419321;26;20015;-46
2024/04/11 10:15:20;;;;;;;6.55;2.13;;;;;;;32.59;17.04;100227.47;5419122;26;20425;-46
2024/04/11 10:18:08;;;;;;;8.48;2.63;;;;;;;32.81;17.38;100226.63;5419337;26;20006;-46
2024/04/11 10:21:01;;;;;;;6.18;2.30;;;;;;;33.25;16.30;100222.22;5419091;26;20442;-45
2024/04/11 10:23:32;;;;;;;9.00;2.38;;;;;;;33.56;15.98;100221.34;5418993;26;20003;-46
2024/04/11 10:26:02;;;;;;;5.57;1.92;;;;;;;33.54;17.15;100218.13;5418898;26;20474;-46
2024/04/11 10:28:49;;;;;;;18.50;1.98;;;;;;;33.43;16.69;100217.66;5418421;26;20082;-46
2024/04/11 10:31:25;;;;;;;8.93;1.73;;;;;;;33.62;15.82;100222.84;5418756;26;20003;-45
2024/04/11 10:34:00;;;;;;;11.10;2.25;;;;;;;33.80;16.32;100220.94;5419038;26;20003;-46
2024/04/11 10:36:32;;;;;;;9.00;2.20;;;;;;;33.94;16.57;100223.53;5418833;26;20004;-45
2024/04/11 10:38:59;;;;;;;8.77;3.08;;;;;;;33.95;16.27;100216.97;5418963;26;20012;-46
2024/04/11 10:41:26;;;;;;;5.85;2.28;;;;;;;33.99;16.22;100216.00;5418682;26;20015;-46
2024/04/11 10:43:55;;;;;;;9.70;2.13;;;;;;;33.76;15.99;100217.25;5418695;26;20004;-45
2024/04/11 10:46:23;;;;;;;8.77;2.38;;;;;;;33.52;16.25;100221.19;5416944;26;20003;-45
2024/04/11 10:48:54;;;;;;;8.48;2.10;;;;;;;33.53;16.26;100217.34;5418432;26;20003;-46
2024/04/11 10:51:22;;;;;;;7.00;1.98;;;;;;;33.43;16.80;100196.66;5418500;26;20000;-46
2024/04/11 10:54:09;;;;;;;6.05;1.70;;;;;;;33.18;16.68;100208.25;5418450;26;20469;-45
2024/04/11 10:56:41;;;;;;;4.40;1.85;;;;;;;33.20;16.30;100215.03;5417435;26;20076;-46
2024/04/11 10:59:18;;;;;;;8.18;2.65;;;;;;;33.31;16.74;100203.84;5418357;26;20015;-46
2024/04/11 11:02:00;;;;;;;6.88;2.22;;;;;;;33.29;16.29;100201.44;5418785;26;20031;-46
2024/04/11 11:04:29;;;;;;;10.25;4.95;;;;;;;33.18;16.55;100200.09;5416610;26;20015;-46
2024/04/11 11:06:59;;;;;;;9.15;2.08;;;;;;;33.13;16.17;100194.81;5418173;26;20007;-45
2024/04/11 11:09:30;;;;;;;5.45;1.60;;;;;;;32.66;17.14;100200.66;5418154;26;20004;-45
2024/04/11 11:11:56;;;;;;;4.82;1.63;;;;;;;32.31;17.19;100207.75;5418263;26;19999;-45
2024/04/11 11:14:25;;;;;;;6.57;1.77;;;;;;;31.61;18.33;100198.94;5418085;26;20015;-45
2024/04/11 11:16:51;;;;;;;8.65;2.50;;;;;;;31.23;18.81;100194.53;5418245;26;20017;-48
2024/04/11 11:19:18;;;;;;;13.07;3.03;;;;;;;31.65;18.85;100186.38;5418134;26;20461;-47
2024/04/11 11:21:50;;;;;;;16.85;3.70;;;;;;;31.94;18.43;100177.06;5418163;26;20013;-48
2024/04/11 11:24:29;;;;;;;10.75;5.22;;;;;;;31.77;18.32;100181.22;5418056;26;20003;-47
2024/04/11 11:26:59;;;;;;;7.28;2.10;;;;;;;31.28;18.33;100184.69;5418361;26;20015;-47
2024/04/11 11:29:26;;;;;;;4.63;1.70;;;;;;;30.78;19.16;100182.63;5417766;26;19999;-47
2024/04/11 11:32:03;;;;;;;10.15;5.75;;;;;;;30.64;19.20;100188.00;5416423;26;20085;-47